sensor_id;sensor_type;location;lat;lon;timestamp;P1;durP1;ratioP1;P2;durP2;ratioP2
9388;SDS011;4734;52.778;6.798;2022-11-15T00:00:47;17.63;;;11.77;;
9388;SDS011;4734;52.778;6.798;2022-11-15T00:03:33;12.83;;;11.43;;
9388;SDS011;4734;52.778;6.798;2022-11-15T00:06:19;12.87;;;11.37;;
9388;SDS011;4734;52.778;6.798;2022-11-15T00:09:05;13.27;;;11.40;;
9388;SDS011;4734;52.778;6.798;2022-11-15T00:11:50;13.73;;;12.23;;
9388;SDS011;4734;52.778;6.798;2022-11-15T00:14:36;15.53;;;11.67;;
9388;SDS011;4734;52.778;6.798;2022-11-15T00:17:24;15.30;;;11.93;;
9388;SDS011;4734;52.778;6.798;2022-11-15T00:20:10;13.27;;;11.33;;
9388;SDS011;4734;52.778;6.798;2022-11-15T00:22:56;14.10;;;11.80;;
9388;SDS011;4734;52.778;6.798;2022-11-15T00:25:42;12.50;;;11.20;;
9388;SDS011;4734;52.778;6.798;2022-11-15T00:28:28;14.23;;;11.93;;
9388;SDS011;4734;52.778;6.798;2022-11-15T00:31:14;14.10;;;11.47;;
9388;SDS011;4734;52.778;6.798;2022-11-15T00:34:01;13.93;;;11.80;;
9388;SDS011;4734;52.778;6.798;2022-11-15T00:36:47;13.77;;;11.77;;
9388;SDS011;4734;52.778;6.798;2022-11-15T00:39:32;13.00;;;11.60;;
9388;SDS011;4734;52.778;6.798;2022-11-15T00:42:18;13.07;;;11.43;;
9388;SDS011;4734;52.778;6.798;2022-11-15T00:45:04;15.63;;;12.13;;
9388;SDS011;4734;52.778;6.798;2022-11-15T00:47:51;14.53;;;12.13;;
9388;SDS011;4734;52.778;6.798;2022-11-15T00:50:39;13.43;;;11.27;;
9388;SDS011;4734;52.778;6.798;2022-11-15T00:53:25;15.00;;;11.97;;
9388;SDS011;4734;52.778;6.798;2022-11-15T00:56:11;13.30;;;11.43;;
9388;SDS011;4734;52.778;6.798;2022-11-15T00:58:56;14.80;;;12.30;;
9388;SDS011;4734;52.778;6.798;2022-11-15T01:01:42;15.03;;;12.70;;
9388;SDS011;4734;52.778;6.798;2022-11-15T01:04:28;16.03;;;12.20;;
9388;SDS011;4734;52.778;6.798;2022-11-15T01:07:15;14.07;;;12.50;;
9388;SDS011;4734;52.778;6.798;2022-11-15T01:10:01;14.30;;;12.77;;
9388;SDS011;4734;52.778;6.798;2022-11-15T01:12:47;14.80;;;12.10;;
9388;SDS011;4734;52.778;6.798;2022-11-15T01:15:33;15.77;;;12.93;;
9388;SDS011;4734;52.778;6.798;2022-11-15T01:18:19;15.47;;;13.30;;
9388;SDS011;4734;52.778;6.798;2022-11-15T01:21:05;15.87;;;12.83;;
9388;SDS011;4734;52.778;6.798;2022-11-15T01:23:54;14.37;;;11.97;;
9388;SDS011;4734;52.778;6.798;2022-11-15T01:26:40;17.30;;;13.07;;
9388;SDS011;4734;52.778;6.798;2022-11-15T01:29:26;16.17;;;12.67;;
9388;SDS011;4734;52.778;6.798;2022-11-15T01:32:11;17.63;;;12.60;;
9388;SDS011;4734;52.778;6.798;2022-11-15T01:34:57;13.70;;;11.67;;
9388;SDS011;4734;52.778;6.798;2022-11-15T01:37:43;13.60;;;11.67;;
9388;SDS011;4734;52.778;6.798;2022-11-15T01:40:30;16.53;;;12.17;;
9388;SDS011;4734;52.778;6.798;2022-11-15T01:43:19;15.50;;;12.93;;
9388;SDS011;4734;52.778;6.798;2022-11-15T01:46:21;14.40;;;11.73;;
9388;SDS011;4734;52.778;6.798;2022-11-15T01:49:13;13.10;;;11.70;;
9388;SDS011;4734;52.778;6.798;2022-11-15T01:52:01;14.30;;;11.87;;
9388;SDS011;4734;52.778;6.798;2022-11-15T01:54:50;15.90;;;12.40;;
9388;SDS011;4734;52.778;6.798;2022-11-15T01:57:43;15.73;;;12.30;;
9388;SDS011;4734;52.778;6.798;2022-11-15T02:00:34;17.00;;;12.43;;
9388;SDS011;4734;52.778;6.798;2022-11-15T02:03:20;16.57;;;12.23;;
9388;SDS011;4734;52.778;6.798;2022-11-15T02:06:11;15.07;;;12.50;;
9388;SDS011;4734;52.778;6.798;2022-11-15T02:08:56;15.53;;;12.50;;
9388;SDS011;4734;52.778;6.798;2022-11-15T02:11:43;14.97;;;12.70;;
9388;SDS011;4734;52.778;6.798;2022-11-15T02:14:33;17.17;;;13.03;;
9388;SDS011;4734;52.778;6.798;2022-11-15T02:17:25;17.87;;;12.73;;
9388;SDS011;4734;52.778;6.798;2022-11-15T02:20:27;19.13;;;13.20;;
9388;SDS011;4734;52.778;6.798;2022-11-15T02:27:11;21.03;;;14.23;;
9388;SDS011;4734;52.778;6.798;2022-11-15T02:33:26;23.27;;;14.97;;
9388;SDS011;4734;52.778;6.798;2022-11-15T02:36:23;25.37;;;15.37;;
9388;SDS011;4734;52.778;6.798;2022-11-15T02:39:19;21.60;;;14.27;;
9388;SDS011;4734;52.778;6.798;2022-11-15T02:42:13;23.83;;;15.53;;
9388;SDS011;4734;52.778;6.798;2022-11-15T02:45:24;22.87;;;14.63;;
9388;SDS011;4734;52.778;6.798;2022-11-15T02:48:14;23.07;;;15.53;;
9388;SDS011;4734;52.778;6.798;2022-11-15T02:51:01;19.10;;;14.63;;
9388;SDS011;4734;52.778;6.798;2022-11-15T02:53:47;23.80;;;15.77;;
9388;SDS011;4734;52.778;6.798;2022-11-15T02:56:34;20.37;;;15.70;;
9388;SDS011;4734;52.778;6.798;2022-11-15T02:59:24;25.07;;;15.93;;
9388;SDS011;4734;52.778;6.798;2022-11-15T03:02:42;21.83;;;14.90;;
9388;SDS011;4734;52.778;6.798;2022-11-15T03:05:49;20.03;;;15.60;;
9388;SDS011;4734;52.778;6.798;2022-11-15T03:08:45;23.00;;;15.93;;
9388;SDS011;4734;52.778;6.798;2022-11-15T03:11:40;22.93;;;16.30;;
9388;SDS011;4734;52.778;6.798;2022-11-15T03:14:29;28.03;;;16.27;;
9388;SDS011;4734;52.778;6.798;2022-11-15T03:17:22;22.63;;;16.30;;
9388;SDS011;4734;52.778;6.798;2022-11-15T03:20:11;25.47;;;17.47;;
9388;SDS011;4734;52.778;6.798;2022-11-15T03:23:04;26.13;;;17.53;;
9388;SDS011;4734;52.778;6.798;2022-11-15T03:25:53;21.93;;;17.00;;
9388;SDS011;4734;52.778;6.798;2022-11-15T03:28:42;25.27;;;16.80;;
9388;SDS011;4734;52.778;6.798;2022-11-15T03:31:33;24.87;;;17.03;;
9388;SDS011;4734;52.778;6.798;2022-11-15T03:34:34;20.67;;;17.23;;
9388;SDS011;4734;52.778;6.798;2022-11-15T03:37:29;23.27;;;18.20;;
9388;SDS011;4734;52.778;6.798;2022-11-15T03:40:29;25.67;;;18.23;;
9388;SDS011;4734;52.778;6.798;2022-11-15T03:43:22;24.93;;;17.53;;
9388;SDS011;4734;52.778;6.798;2022-11-15T03:46:16;29.67;;;18.90;;
9388;SDS011;4734;52.778;6.798;2022-11-15T03:49:10;26.23;;;17.80;;
9388;SDS011;4734;52.778;6.798;2022-11-15T03:52:00;27.70;;;18.57;;
9388;SDS011;4734;52.778;6.798;2022-11-15T03:54:48;26.73;;;18.50;;
9388;SDS011;4734;52.778;6.798;2022-11-15T03:57:39;27.17;;;20.02;;
9388;SDS011;4734;52.778;6.798;2022-11-15T04:00:25;31.47;;;19.87;;
9388;SDS011;4734;52.778;6.798;2022-11-15T04:03:11;25.60;;;19.30;;
9388;SDS011;4734;52.778;6.798;2022-11-15T04:05:57;27.58;;;19.63;;
9388;SDS011;4734;52.778;6.798;2022-11-15T04:08:43;32.13;;;21.07;;
9388;SDS011;4734;52.778;6.798;2022-11-15T04:11:29;32.07;;;20.30;;
9388;SDS011;4734;52.778;6.798;2022-11-15T04:14:16;32.87;;;21.90;;
9388;SDS011;4734;52.778;6.798;2022-11-15T04:17:01;36.33;;;22.63;;
9388;SDS011;4734;52.778;6.798;2022-11-15T04:19:47;37.03;;;23.20;;
9388;SDS011;4734;52.778;6.798;2022-11-15T04:22:52;32.60;;;22.20;;
9388;SDS011;4734;52.778;6.798;2022-11-15T04:25:56;36.27;;;22.60;;
9388;SDS011;4734;52.778;6.798;2022-11-15T04:28:44;35.43;;;22.13;;
9388;SDS011;4734;52.778;6.798;2022-11-15T04:31:45;33.27;;;22.23;;
9388;SDS011;4734;52.778;6.798;2022-11-15T04:34:31;40.53;;;23.67;;
9388;SDS011;4734;52.778;6.798;2022-11-15T04:37:17;33.20;;;22.13;;
9388;SDS011;4734;52.778;6.798;2022-11-15T04:40:04;38.50;;;22.10;;
9388;SDS011;4734;52.778;6.798;2022-11-15T04:42:53;36.20;;;22.03;;
9388;SDS011;4734;52.778;6.798;2022-11-15T04:45:38;38.23;;;23.27;;
9388;SDS011;4734;52.778;6.798;2022-11-15T04:48:26;38.93;;;24.03;;
9388;SDS011;4734;52.778;6.798;2022-11-15T04:51:12;38.13;;;21.97;;
9388;SDS011;4734;52.778;6.798;2022-11-15T04:53:57;38.97;;;22.53;;
9388;SDS011;4734;52.778;6.798;2022-11-15T04:56:43;34.17;;;22.03;;
9388;SDS011;4734;52.778;6.798;2022-11-15T04:59:29;37.33;;;23.37;;
9388;SDS011;4734;52.778;6.798;2022-11-15T05:02:15;37.83;;;22.17;;
9388;SDS011;4734;52.778;6.798;2022-11-15T05:05:03;33.83;;;21.90;;
9388;SDS011;4734;52.778;6.798;2022-11-15T05:07:48;34.63;;;21.87;;
9388;SDS011;4734;52.778;6.798;2022-11-15T05:10:34;33.30;;;21.93;;
9388;SDS011;4734;52.778;6.798;2022-11-15T05:13:19;34.50;;;21.50;;
9388;SDS011;4734;52.778;6.798;2022-11-15T05:16:05;35.03;;;21.33;;
9388;SDS011;4734;52.778;6.798;2022-11-15T05:18:52;33.23;;;22.10;;
9388;SDS011;4734;52.778;6.798;2022-11-15T05:21:42;35.27;;;21.60;;
9388;SDS011;4734;52.778;6.798;2022-11-15T05:24:28;29.70;;;21.37;;
9388;SDS011;4734;52.778;6.798;2022-11-15T05:27:14;36.10;;;22.03;;
9388;SDS011;4734;52.778;6.798;2022-11-15T05:29:59;31.97;;;21.80;;
9388;SDS011;4734;52.778;6.798;2022-11-15T05:32:45;32.60;;;21.80;;
9388;SDS011;4734;52.778;6.798;2022-11-15T05:35:33;29.73;;;19.60;;
9388;SDS011;4734;52.778;6.798;2022-11-15T05:38:25;32.27;;;20.17;;
9388;SDS011;4734;52.778;6.798;2022-11-15T05:41:11;32.50;;;21.10;;
9388;SDS011;4734;52.778;6.798;2022-11-15T05:43:58;31.20;;;21.53;;
9388;SDS011;4734;52.778;6.798;2022-11-15T05:46:45;34.90;;;20.63;;
9388;SDS011;4734;52.778;6.798;2022-11-15T05:49:33;26.80;;;18.80;;
9388;SDS011;4734;52.778;6.798;2022-11-15T05:52:21;29.10;;;19.53;;
9388;SDS011;4734;52.778;6.798;2022-11-15T05:55:11;27.17;;;18.53;;
9388;SDS011;4734;52.778;6.798;2022-11-15T05:57:58;28.57;;;19.40;;
9388;SDS011;4734;52.778;6.798;2022-11-15T06:00:44;30.27;;;18.97;;
9388;SDS011;4734;52.778;6.798;2022-11-15T06:03:30;30.60;;;18.53;;
9388;SDS011;4734;52.778;6.798;2022-11-15T06:06:16;29.70;;;19.57;;
9388;SDS011;4734;52.778;6.798;2022-11-15T06:09:02;32.27;;;18.27;;
9388;SDS011;4734;52.778;6.798;2022-11-15T06:11:49;25.87;;;18.20;;
9388;SDS011;4734;52.778;6.798;2022-11-15T06:14:35;27.70;;;18.20;;
9388;SDS011;4734;52.778;6.798;2022-11-15T06:17:21;27.40;;;17.27;;
9388;SDS011;4734;52.778;6.798;2022-11-15T06:20:07;25.67;;;17.37;;
9388;SDS011;4734;52.778;6.798;2022-11-15T06:22:56;28.63;;;17.83;;
9388;SDS011;4734;52.778;6.798;2022-11-15T06:25:42;24.80;;;17.43;;
9388;SDS011;4734;52.778;6.798;2022-11-15T06:28:30;27.83;;;19.13;;
9388;SDS011;4734;52.778;6.798;2022-11-15T06:31:17;23.67;;;16.80;;
9388;SDS011;4734;52.778;6.798;2022-11-15T06:34:03;29.13;;;17.17;;
9388;SDS011;4734;52.778;6.798;2022-11-15T06:36:49;23.90;;;17.55;;
9388;SDS011;4734;52.778;6.798;2022-11-15T06:39:35;32.47;;;17.33;;
9388;SDS011;4734;52.778;6.798;2022-11-15T06:42:20;26.00;;;17.77;;
9388;SDS011;4734;52.778;6.798;2022-11-15T06:45:08;31.53;;;18.63;;
9388;SDS011;4734;52.778;6.798;2022-11-15T06:47:54;24.50;;;17.13;;
9388;SDS011;4734;52.778;6.798;2022-11-15T06:50:40;24.33;;;17.47;;
9388;SDS011;4734;52.778;6.798;2022-11-15T06:53:26;29.08;;;18.45;;
9388;SDS011;4734;52.778;6.798;2022-11-15T06:56:13;31.37;;;18.17;;
9388;SDS011;4734;52.778;6.798;2022-11-15T06:58:58;29.33;;;17.90;;
9388;SDS011;4734;52.778;6.798;2022-11-15T07:01:45;30.20;;;18.13;;
9388;SDS011;4734;52.778;6.798;2022-11-15T07:04:31;27.73;;;17.43;;
9388;SDS011;4734;52.778;6.798;2022-11-15T07:07:19;27.20;;;17.70;;
9388;SDS011;4734;52.778;6.798;2022-11-15T07:10:06;28.35;;;17.63;;
9388;SDS011;4734;52.778;6.798;2022-11-15T07:12:53;28.02;;;17.95;;
9388;SDS011;4734;52.778;6.798;2022-11-15T07:15:40;28.35;;;18.33;;
9388;SDS011;4734;52.778;6.798;2022-11-15T07:18:27;27.52;;;18.25;;
9388;SDS011;4734;52.778;6.798;2022-11-15T07:21:13;28.27;;;17.98;;
9388;SDS011;4734;52.778;6.798;2022-11-15T07:23:59;27.98;;;17.48;;
9388;SDS011;4734;52.778;6.798;2022-11-15T07:26:44;26.23;;;17.35;;
9388;SDS011;4734;52.778;6.798;2022-11-15T07:29:30;30.98;;;19.10;;
9388;SDS011;4734;52.778;6.798;2022-11-15T07:32:16;27.80;;;17.92;;
9388;SDS011;4734;52.778;6.798;2022-11-15T07:35:03;24.58;;;15.90;;
9388;SDS011;4734;52.778;6.798;2022-11-15T07:37:53;28.15;;;17.45;;
9388;SDS011;4734;52.778;6.798;2022-11-15T07:40:40;30.08;;;17.98;;
9388;SDS011;4734;52.778;6.798;2022-11-15T07:43:26;28.05;;;18.98;;
9388;SDS011;4734;52.778;6.798;2022-11-15T07:46:13;28.00;;;18.25;;
9388;SDS011;4734;52.778;6.798;2022-11-15T07:48:59;26.17;;;18.25;;
9388;SDS011;4734;52.778;6.798;2022-11-15T07:51:47;26.38;;;18.45;;
9388;SDS011;4734;52.778;6.798;2022-11-15T07:54:33;23.92;;;17.80;;
9388;SDS011;4734;52.778;6.798;2022-11-15T07:57:18;25.08;;;18.23;;
9388;SDS011;4734;52.778;6.798;2022-11-15T08:00:05;24.83;;;18.05;;
9388;SDS011;4734;52.778;6.798;2022-11-15T08:02:51;25.90;;;18.55;;
9388;SDS011;4734;52.778;6.798;2022-11-15T08:05:37;26.33;;;19.67;;
9388;SDS011;4734;52.778;6.798;2022-11-15T08:08:25;23.92;;;17.35;;
9388;SDS011;4734;52.778;6.798;2022-11-15T08:11:11;27.83;;;18.20;;
9388;SDS011;4734;52.778;6.798;2022-11-15T08:13:57;26.33;;;18.15;;
9388;SDS011;4734;52.778;6.798;2022-11-15T08:16:43;24.45;;;17.92;;
9388;SDS011;4734;52.778;6.798;2022-11-15T08:19:28;25.67;;;18.45;;
9388;SDS011;4734;52.778;6.798;2022-11-15T08:22:14;26.80;;;18.27;;
9388;SDS011;4734;52.778;6.798;2022-11-15T08:25:02;24.73;;;17.88;;
9388;SDS011;4734;52.778;6.798;2022-11-15T08:27:51;23.75;;;17.52;;
9388;SDS011;4734;52.778;6.798;2022-11-15T08:30:38;27.63;;;18.40;;
9388;SDS011;4734;52.778;6.798;2022-11-15T08:33:26;21.85;;;17.08;;
9388;SDS011;4734;52.778;6.798;2022-11-15T08:36:13;24.17;;;17.27;;
9388;SDS011;4734;52.778;6.798;2022-11-15T08:39:00;25.37;;;18.07;;
9388;SDS011;4734;52.778;6.798;2022-11-15T08:41:47;22.77;;;17.27;;
9388;SDS011;4734;52.778;6.798;2022-11-15T08:44:32;22.97;;;17.93;;
9388;SDS011;4734;52.778;6.798;2022-11-15T08:47:19;23.73;;;17.52;;
9388;SDS011;4734;52.778;6.798;2022-11-15T08:50:05;22.70;;;17.50;;
9388;SDS011;4734;52.778;6.798;2022-11-15T08:52:52;24.50;;;17.42;;
9388;SDS011;4734;52.778;6.798;2022-11-15T08:55:38;21.98;;;16.63;;
9388;SDS011;4734;52.778;6.798;2022-11-15T08:58:27;24.38;;;17.15;;
9388;SDS011;4734;52.778;6.798;2022-11-15T09:01:16;21.98;;;16.83;;
9388;SDS011;4734;52.778;6.798;2022-11-15T09:04:04;19.75;;;15.52;;
9388;SDS011;4734;52.778;6.798;2022-11-15T09:06:49;24.45;;;17.85;;
9388;SDS011;4734;52.778;6.798;2022-11-15T09:09:35;24.55;;;17.40;;
9388;SDS011;4734;52.778;6.798;2022-11-15T09:12:21;22.03;;;17.57;;
9388;SDS011;4734;52.778;6.798;2022-11-15T09:15:09;25.45;;;18.17;;
9388;SDS011;4734;52.778;6.798;2022-11-15T09:17:57;20.65;;;17.15;;
9388;SDS011;4734;52.778;6.798;2022-11-15T09:20:43;20.42;;;17.52;;
9388;SDS011;4734;52.778;6.798;2022-11-15T09:23:28;19.93;;;16.63;;
9388;SDS011;4734;52.778;6.798;2022-11-15T09:26:14;23.33;;;17.02;;
9388;SDS011;4734;52.778;6.798;2022-11-15T09:29:00;21.57;;;16.60;;
9388;SDS011;4734;52.778;6.798;2022-11-15T09:31:47;20.27;;;17.13;;
9388;SDS011;4734;52.778;6.798;2022-11-15T09:34:33;24.05;;;18.90;;
9388;SDS011;4734;52.778;6.798;2022-11-15T09:37:19;23.63;;;17.88;;
9388;SDS011;4734;52.778;6.798;2022-11-15T09:40:05;26.13;;;18.40;;
9388;SDS011;4734;52.778;6.798;2022-11-15T09:43:09;28.00;;;17.83;;
9388;SDS011;4734;52.778;6.798;2022-11-15T09:46:20;24.58;;;18.80;;
9388;SDS011;4734;52.778;6.798;2022-11-15T09:49:15;24.38;;;19.00;;
9388;SDS011;4734;52.778;6.798;2022-11-15T09:52:06;21.55;;;18.83;;
9388;SDS011;4734;52.778;6.798;2022-11-15T09:54:53;24.35;;;19.13;;
9388;SDS011;4734;52.778;6.798;2022-11-15T09:57:44;24.67;;;19.83;;
9388;SDS011;4734;52.778;6.798;2022-11-15T10:00:37;23.50;;;19.77;;
9388;SDS011;4734;52.778;6.798;2022-11-15T10:03:27;23.38;;;18.95;;
9388;SDS011;4734;52.778;6.798;2022-11-15T10:06:19;25.45;;;20.45;;
9388;SDS011;4734;52.778;6.798;2022-11-15T10:09:11;22.77;;;18.95;;
9388;SDS011;4734;52.778;6.798;2022-11-15T10:12:00;22.67;;;19.77;;
9388;SDS011;4734;52.778;6.798;2022-11-15T10:14:46;24.92;;;19.00;;
9388;SDS011;4734;52.778;6.798;2022-11-15T10:17:39;20.80;;;17.92;;
9388;SDS011;4734;52.778;6.798;2022-11-15T10:20:48;24.58;;;18.25;;
9388;SDS011;4734;52.778;6.798;2022-11-15T10:23:36;22.45;;;19.20;;
9388;SDS011;4734;52.778;6.798;2022-11-15T10:26:22;18.90;;;16.90;;
9388;SDS011;4734;52.778;6.798;2022-11-15T10:29:09;20.55;;;17.02;;
9388;SDS011;4734;52.778;6.798;2022-11-15T10:31:55;18.73;;;15.85;;
9388;SDS011;4734;52.778;6.798;2022-11-15T10:34:40;17.45;;;15.57;;
9388;SDS011;4734;52.778;6.798;2022-11-15T10:37:27;17.30;;;15.35;;
9388;SDS011;4734;52.778;6.798;2022-11-15T10:40:16;16.02;;;14.40;;
9388;SDS011;4734;52.778;6.798;2022-11-15T10:43:05;15.32;;;13.73;;
9388;SDS011;4734;52.778;6.798;2022-11-15T10:45:58;15.60;;;13.95;;
9388;SDS011;4734;52.778;6.798;2022-11-15T10:49:11;14.75;;;13.25;;
9388;SDS011;4734;52.778;6.798;2022-11-15T10:51:59;15.30;;;13.02;;
9388;SDS011;4734;52.778;6.798;2022-11-15T10:54:47;14.70;;;11.70;;
9388;SDS011;4734;52.778;6.798;2022-11-15T10:57:38;14.88;;;11.63;;
9388;SDS011;4734;52.778;6.798;2022-11-15T11:00:36;14.02;;;11.02;;
9388;SDS011;4734;52.778;6.798;2022-11-15T11:03:28;12.45;;;10.40;;
9388;SDS011;4734;52.778;6.798;2022-11-15T11:06:17;11.80;;;10.15;;
9388;SDS011;4734;52.778;6.798;2022-11-15T11:09:05;11.45;;;10.25;;
9388;SDS011;4734;52.778;6.798;2022-11-15T11:12:04;10.75;;;9.60;;
9388;SDS011;4734;52.778;6.798;2022-11-15T11:14:56;12.85;;;8.80;;
9388;SDS011;4734;52.778;6.798;2022-11-15T11:17:48;9.73;;;8.13;;
9388;SDS011;4734;52.778;6.798;2022-11-15T11:20:44;8.77;;;7.88;;
9388;SDS011;4734;52.778;6.798;2022-11-15T11:23:38;9.68;;;7.40;;
9388;SDS011;4734;52.778;6.798;2022-11-15T11:26:38;11.82;;;7.88;;
9388;SDS011;4734;52.778;6.798;2022-11-15T11:29:32;8.20;;;7.28;;
9388;SDS011;4734;52.778;6.798;2022-11-15T11:32:39;8.05;;;7.10;;
9388;SDS011;4734;52.778;6.798;2022-11-15T11:35:55;7.85;;;7.05;;
9388;SDS011;4734;52.778;6.798;2022-11-15T11:38:55;10.00;;;6.65;;
9388;SDS011;4734;52.778;6.798;2022-11-15T11:42:13;6.88;;;6.18;;
9388;SDS011;4734;52.778;6.798;2022-11-15T11:45:21;9.10;;;5.18;;
9388;SDS011;4734;52.778;6.798;2022-11-15T11:48:19;9.77;;;5.22;;
9388;SDS011;4734;52.778;6.798;2022-11-15T11:51:16;5.82;;;4.90;;
9388;SDS011;4734;52.778;6.798;2022-11-15T11:54:05;5.15;;;4.65;;
9388;SDS011;4734;52.778;6.798;2022-11-15T11:56:56;7.57;;;5.00;;
9388;SDS011;4734;52.778;6.798;2022-11-15T11:59:47;5.15;;;4.60;;
9388;SDS011;4734;52.778;6.798;2022-11-15T12:02:37;5.82;;;4.20;;
9388;SDS011;4734;52.778;6.798;2022-11-15T12:05:29;5.78;;;4.25;;
9388;SDS011;4734;52.778;6.798;2022-11-15T12:08:23;5.03;;;4.35;;
9388;SDS011;4734;52.778;6.798;2022-11-15T12:11:17;4.60;;;3.30;;
9388;SDS011;4734;52.778;6.798;2022-11-15T12:14:12;6.13;;;3.78;;
9388;SDS011;4734;52.778;6.798;2022-11-15T12:17:08;4.03;;;3.40;;
9388;SDS011;4734;52.778;6.798;2022-11-15T12:19:56;4.35;;;3.03;;
9388;SDS011;4734;52.778;6.798;2022-11-15T12:22:46;3.50;;;3.20;;
9388;SDS011;4734;52.778;6.798;2022-11-15T12:25:40;3.83;;;3.10;;
9388;SDS011;4734;52.778;6.798;2022-11-15T12:28:32;4.90;;;2.85;;
9388;SDS011;4734;52.778;6.798;2022-11-15T12:31:24;5.65;;;3.45;;
9388;SDS011;4734;52.778;6.798;2022-11-15T12:34:28;3.53;;;3.20;;
9388;SDS011;4734;52.778;6.798;2022-11-15T12:44:00;6.10;;;2.90;;
9388;SDS011;4734;52.778;6.798;2022-11-15T12:50:22;4.10;;;2.60;;
9388;SDS011;4734;52.778;6.798;2022-11-15T12:53:43;4.25;;;2.47;;
9388;SDS011;4734;52.778;6.798;2022-11-15T12:56:28;4.40;;;2.20;;
9388;SDS011;4734;52.778;6.798;2022-11-15T12:59:38;3.80;;;2.58;;
9388;SDS011;4734;52.778;6.798;2022-11-15T13:02:35;2.47;;;2.00;;
9388;SDS011;4734;52.778;6.798;2022-11-15T13:05:51;3.47;;;2.00;;
9388;SDS011;4734;52.778;6.798;2022-11-15T13:08:54;2.10;;;1.90;;
9388;SDS011;4734;52.778;6.798;2022-11-15T13:11:44;2.70;;;1.90;;
9388;SDS011;4734;52.778;6.798;2022-11-15T13:14:44;2.83;;;2.20;;
9388;SDS011;4734;52.778;6.798;2022-11-15T13:17:36;2.30;;;1.92;;
9388;SDS011;4734;52.778;6.798;2022-11-15T13:20:25;2.17;;;2.03;;
9388;SDS011;4734;52.778;6.798;2022-11-15T13:23:13;2.97;;;2.08;;
9388;SDS011;4734;52.778;6.798;2022-11-15T13:26:06;4.53;;;2.25;;
9388;SDS011;4734;52.778;6.798;2022-11-15T13:28:57;3.72;;;2.17;;
9388;SDS011;4734;52.778;6.798;2022-11-15T13:31:44;2.40;;;2.20;;
9388;SDS011;4734;52.778;6.798;2022-11-15T13:34:32;4.40;;;3.10;;
9388;SDS011;4734;52.778;6.798;2022-11-15T13:37:31;8.95;;;6.70;;
9388;SDS011;4734;52.778;6.798;2022-11-15T13:40:20;4.60;;;2.70;;
9388;SDS011;4734;52.778;6.798;2022-11-15T13:43:17;4.35;;;2.92;;
9388;SDS011;4734;52.778;6.798;2022-11-15T13:46:14;14.23;;;5.68;;
9388;SDS011;4734;52.778;6.798;2022-11-15T13:49:03;4.45;;;3.38;;
9388;SDS011;4734;52.778;6.798;2022-11-15T13:51:56;13.27;;;6.20;;
9388;SDS011;4734;52.778;6.798;2022-11-15T13:54:45;3.30;;;2.88;;
9388;SDS011;4734;52.778;6.798;2022-11-15T13:57:42;3.75;;;2.95;;
9388;SDS011;4734;52.778;6.798;2022-11-15T14:00:34;4.70;;;3.03;;
9388;SDS011;4734;52.778;6.798;2022-11-15T14:03:23;7.85;;;3.72;;
9388;SDS011;4734;52.778;6.798;2022-11-15T14:06:11;2.72;;;2.53;;
9388;SDS011;4734;52.778;6.798;2022-11-15T14:09:14;2.70;;;2.47;;
9388;SDS011;4734;52.778;6.798;2022-11-15T14:12:27;3.70;;;3.20;;
9388;SDS011;4734;52.778;6.798;2022-11-15T14:15:25;3.10;;;2.90;;
9388;SDS011;4734;52.778;6.798;2022-11-15T14:21:26;3.35;;;2.78;;
9388;SDS011;4734;52.778;6.798;2022-11-15T14:24:17;3.08;;;2.83;;
9388;SDS011;4734;52.778;6.798;2022-11-15T14:27:21;3.20;;;2.90;;
9388;SDS011;4734;52.778;6.798;2022-11-15T14:30:12;3.03;;;2.83;;
9388;SDS011;4734;52.778;6.798;2022-11-15T14:33:00;3.50;;;3.20;;
9388;SDS011;4734;52.778;6.798;2022-11-15T14:35:46;4.68;;;3.80;;
9388;SDS011;4734;52.778;6.798;2022-11-15T14:38:32;3.25;;;3.05;;
9388;SDS011;4734;52.778;6.798;2022-11-15T14:41:21;4.93;;;3.97;;
9388;SDS011;4734;52.778;6.798;2022-11-15T14:44:11;3.80;;;3.50;;
9388;SDS011;4734;52.778;6.798;2022-11-15T14:47:02;4.28;;;3.88;;
9388;SDS011;4734;52.778;6.798;2022-11-15T14:49:47;4.55;;;3.97;;
9388;SDS011;4734;52.778;6.798;2022-11-15T14:52:33;4.10;;;3.80;;
9388;SDS011;4734;52.778;6.798;2022-11-15T14:55:20;6.63;;;4.45;;
9388;SDS011;4734;52.778;6.798;2022-11-15T14:58:09;5.45;;;4.95;;
9388;SDS011;4734;52.778;6.798;2022-11-15T15:00:55;5.05;;;3.58;;
9388;SDS011;4734;52.778;6.798;2022-11-15T15:03:41;18.10;;;12.65;;
9388;SDS011;4734;52.778;6.798;2022-11-15T15:06:27;4.32;;;3.60;;
9388;SDS011;4734;52.778;6.798;2022-11-15T15:09:14;4.20;;;3.80;;
9388;SDS011;4734;52.778;6.798;2022-11-15T15:11:59;5.93;;;4.32;;
9388;SDS011;4734;52.778;6.798;2022-11-15T15:14:47;3.88;;;3.10;;
9388;SDS011;4734;52.778;6.798;2022-11-15T15:17:34;2.90;;;2.60;;
9388;SDS011;4734;52.778;6.798;2022-11-15T15:20:19;4.75;;;2.80;;
9388;SDS011;4734;52.778;6.798;2022-11-15T15:23:05;2.90;;;2.60;;
9388;SDS011;4734;52.778;6.798;2022-11-15T15:25:53;3.17;;;2.80;;
9388;SDS011;4734;52.778;6.798;2022-11-15T15:28:39;2.90;;;2.70;;
9388;SDS011;4734;52.778;6.798;2022-11-15T15:31:27;2.80;;;2.60;;
9388;SDS011;4734;52.778;6.798;2022-11-15T15:34:13;1.98;;;1.85;;
9388;SDS011;4734;52.778;6.798;2022-11-15T15:37:07;3.13;;;2.00;;
9388;SDS011;4734;52.778;6.798;2022-11-15T15:39:55;2.22;;;2.00;;
9388;SDS011;4734;52.778;6.798;2022-11-15T15:42:42;2.33;;;2.13;;
9388;SDS011;4734;52.778;6.798;2022-11-15T15:45:28;2.10;;;2.00;;
9388;SDS011;4734;52.778;6.798;2022-11-15T15:48:17;2.20;;;1.85;;
9388;SDS011;4734;52.778;6.798;2022-11-15T15:51:03;2.42;;;2.22;;
9388;SDS011;4734;52.778;6.798;2022-11-15T15:53:49;2.05;;;1.75;;
9388;SDS011;4734;52.778;6.798;2022-11-15T15:56:40;1.90;;;1.80;;
9388;SDS011;4734;52.778;6.798;2022-11-15T15:59:26;1.75;;;1.60;;
9388;SDS011;4734;52.778;6.798;2022-11-15T16:02:12;2.47;;;1.73;;
9388;SDS011;4734;52.778;6.798;2022-11-15T16:04:59;1.70;;;1.60;;
9388;SDS011;4734;52.778;6.798;2022-11-15T16:07:45;1.83;;;1.73;;
9388;SDS011;4734;52.778;6.798;2022-11-15T16:10:32;1.50;;;1.40;;
9388;SDS011;4734;52.778;6.798;2022-11-15T16:13:20;2.45;;;1.40;;
9388;SDS011;4734;52.778;6.798;2022-11-15T16:16:07;1.40;;;1.30;;
9388;SDS011;4734;52.778;6.798;2022-11-15T16:18:58;4.95;;;2.92;;
9388;SDS011;4734;52.778;6.798;2022-11-15T16:21:46;3.38;;;1.50;;
9388;SDS011;4734;52.778;6.798;2022-11-15T16:24:31;1.83;;;1.50;;
9388;SDS011;4734;52.778;6.798;2022-11-15T16:27:18;2.65;;;1.60;;
9388;SDS011;4734;52.778;6.798;2022-11-15T16:30:07;2.58;;;2.03;;
9388;SDS011;4734;52.778;6.798;2022-11-15T16:32:57;3.17;;;1.55;;
9388;SDS011;4734;52.778;6.798;2022-11-15T16:35:44;4.00;;;1.98;;
9388;SDS011;4734;52.778;6.798;2022-11-15T16:38:33;2.40;;;2.00;;
9388;SDS011;4734;52.778;6.798;2022-11-15T16:41:19;2.67;;;1.67;;
9388;SDS011;4734;52.778;6.798;2022-11-15T16:44:05;2.08;;;1.83;;
9388;SDS011;4734;52.778;6.798;2022-11-15T16:46:51;3.70;;;2.35;;
9388;SDS011;4734;52.778;6.798;2022-11-15T16:49:37;2.40;;;2.20;;
9388;SDS011;4734;52.778;6.798;2022-11-15T16:52:27;2.65;;;1.75;;
9388;SDS011;4734;52.778;6.798;2022-11-15T16:55:15;1.50;;;1.40;;
9388;SDS011;4734;52.778;6.798;2022-11-15T16:58:01;2.47;;;1.70;;
9388;SDS011;4734;52.778;6.798;2022-11-15T17:00:49;1.88;;;1.58;;
9388;SDS011;4734;52.778;6.798;2022-11-15T17:03:37;2.85;;;1.80;;
9388;SDS011;4734;52.778;6.798;2022-11-15T17:06:24;2.15;;;1.70;;
9388;SDS011;4734;52.778;6.798;2022-11-15T17:09:11;3.05;;;1.65;;
9388;SDS011;4734;52.778;6.798;2022-11-15T17:12:02;1.92;;;1.83;;
9388;SDS011;4734;52.778;6.798;2022-11-15T17:14:56;1.70;;;1.60;;
9388;SDS011;4734;52.778;6.798;2022-11-15T17:17:49;1.80;;;1.70;;
9388;SDS011;4734;52.778;6.798;2022-11-15T17:20:36;5.60;;;2.00;;
9388;SDS011;4734;52.778;6.798;2022-11-15T17:23:22;3.92;;;1.60;;
9388;SDS011;4734;52.778;6.798;2022-11-15T17:26:09;4.18;;;1.77;;
9388;SDS011;4734;52.778;6.798;2022-11-15T17:28:57;2.30;;;2.10;;
9388;SDS011;4734;52.778;6.798;2022-11-15T17:31:45;3.92;;;1.52;;
9388;SDS011;4734;52.778;6.798;2022-11-15T17:34:36;3.83;;;1.77;;